Time;durP1;ratioP1;P1;durP2;ratioP2;P2;SDS_P1;SDS_P2;PMS_P1;PMS_P2;Temp;Humidity;BMP_temperature;BMP_pressure;BME280_temperature;BME280_humidity;BME280_pressure;Samples;Min_cycle;Max_cycle;Signal;HPM_P1;HPM_P2
2021/06/16 00:01:43;;;;;;;8.27;1.90;;;;;;;;;;2017546;67;20357;-69
2021/06/16 00:04:08;;;;;;;7.03;2.03;;;;;;;;;;1912609;75;20089;-69
2021/06/16 00:06:34;;;;;;;8.38;1.70;;;;;;;;;;1912581;75;20091;-69
2021/06/16 00:09:00;;;;;;;8.57;2.28;;;;;;;;;;1912554;75;20083;-69
2021/06/16 00:11:26;;;;;;;12.52;4.50;;;;;;;;;;1995828;67;20084;-69
2021/06/16 00:13:52;;;;;;;8.82;2.30;;;;;;;;;;1909686;75;20107;-68
2021/06/16 00:16:17;;;;;;;9.50;2.63;;;;;;;;;;1909646;75;20080;-69
2021/06/16 00:18:43;;;;;;;21.08;5.20;;;;;;;;;;1909568;75;20084;-69
2021/06/16 00:21:12;;;;;;;11.02;2.40;;;;;;;;;;1975659;67;20389;-68
2021/06/16 00:23:37;;;;;;;11.88;2.38;;;;;;;;;;1912264;75;20392;-68
2021/06/16 00:26:03;;;;;;;6.97;2.67;;;;;;;;;;1912256;75;20133;-68
2021/06/16 00:28:28;;;;;;;8.15;2.38;;;;;;;;;;1917908;67;20143;-69
2021/06/16 00:30:53;;;;;;;11.02;2.13;;;;;;;;;;1957642;67;20083;-69
2021/06/16 00:33:19;;;;;;;12.07;2.38;;;;;;;;;;1912243;75;20113;-68
2021/06/16 00:35:44;;;;;;;6.28;2.20;;;;;;;;;;1912496;75;20090;-68
2021/06/16 00:38:10;;;;;;;7.18;1.92;;;;;;;;;;1912266;75;20131;-68
2021/06/16 00:40:35;;;;;;;12.73;2.75;;;;;;;;;;2042659;67;20084;-69
2021/06/16 00:43:01;;;;;;;9.32;2.83;;;;;;;;;;1909518;75;20497;-69
2021/06/16 00:45:27;;;;;;;7.40;2.50;;;;;;;;;;1909164;75;20107;-68
2021/06/16 00:47:57;;;;;;;8.18;2.33;;;;;;;;;;1909316;75;20103;-68
2021/06/16 00:50:31;;;;;;;6.85;2.47;;;;;;;;;;1912623;67;20087;-68
2021/06/16 00:52:57;;;;;;;11.82;2.60;;;;;;;;;;1912077;75;20076;-69
2021/06/16 00:55:22;;;;;;;13.25;3.25;;;;;;;;;;1912443;75;20149;-70
2021/06/16 00:57:48;;;;;;;7.80;2.20;;;;;;;;;;1912149;75;20173;-68
2021/06/16 01:00:19;;;;;;;9.80;1.90;;;;;;;;;;1911855;75;20080;-68
2021/06/16 01:02:59;;;;;;;12.38;2.53;;;;;;;;;;1912166;75;20080;-68
2021/06/16 01:05:29;;;;;;;8.73;2.40;;;;;;;;;;1912307;75;20079;-68
2021/06/16 01:07:58;;;;;;;4.93;1.73;;;;;;;;;;1912126;75;20491;-68
2021/06/16 01:10:25;;;;;;;7.40;2.05;;;;;;;;;;1913611;67;20091;-69
2021/06/16 01:13:02;;;;;;;5.72;2.13;;;;;;;;;;1909448;75;20133;-69
2021/06/16 01:15:32;;;;;;;10.63;2.25;;;;;;;;;;1910151;75;20497;-69
2021/06/16 01:18:00;;;;;;;12.88;2.50;;;;;;;;;;1910133;75;20615;-69
2021/06/16 01:20:40;;;;;;;6.80;2.08;;;;;;;;;;1911621;75;20090;-68
2021/06/16 01:23:09;;;;;;;8.65;3.08;;;;;;;;;;1912762;75;20075;-68
2021/06/16 01:25:58;;;;;;;9.63;2.53;;;;;;;;;;1912845;75;20084;-69
2021/06/16 01:28:28;;;;;;;6.88;2.50;;;;;;;;;;1916790;67;20087;-68
2021/06/16 01:30:54;;;;;;;5.88;2.25;;;;;;;;;;1909661;75;20528;-69
2021/06/16 01:33:19;;;;;;;8.27;2.38;;;;;;;;;;1909540;75;20374;-69
2021/06/16 01:35:51;;;;;;;8.10;2.50;;;;;;;;;;1909724;75;20107;-69
2021/06/16 01:38:19;;;;;;;7.38;2.53;;;;;;;;;;1990489;67;20201;-69
2021/06/16 01:40:46;;;;;;;14.93;2.58;;;;;;;;;;1912179;67;20079;-69
2021/06/16 01:43:12;;;;;;;7.20;2.42;;;;;;;;;;1912910;75;20512;-69
2021/06/16 01:45:40;;;;;;;8.95;2.55;;;;;;;;;;1912618;75;20080;-69
2021/06/16 01:48:08;;;;;;;10.80;2.85;;;;;;;;;;1913833;67;20091;-69
2021/06/16 01:50:35;;;;;;;6.20;2.47;;;;;;;;;;1913463;75;20091;-68
2021/06/16 01:53:01;;;;;;;11.07;2.58;;;;;;;;;;1912880;75;20429;-69
2021/06/16 01:55:27;;;;;;;12.10;2.63;;;;;;;;;;1912611;75;20095;-68
2021/06/16 01:57:55;;;;;;;10.82;2.80;;;;;;;;;;1912309;67;20080;-68
2021/06/16 02:00:21;;;;;;;9.02;2.42;;;;;;;;;;1910090;75;20408;-68
2021/06/16 02:02:47;;;;;;;7.55;2.80;;;;;;;;;;1909951;75;20076;-68
2021/06/16 02:05:17;;;;;;;7.47;2.63;;;;;;;;;;1909528;75;20475;-69
2021/06/16 02:07:49;;;;;;;5.05;2.50;;;;;;;;;;1960864;67;20092;-69
2021/06/16 02:10:18;;;;;;;15.07;3.40;;;;;;;;;;1910781;75;20157;-70
2021/06/16 02:12:45;;;;;;;13.20;3.55;;;;;;;;;;1910650;75;20084;-68
2021/06/16 02:15:15;;;;;;;9.15;3.00;;;;;;;;;;1910117;75;20141;-69
2021/06/16 02:17:55;;;;;;;9.10;2.85;;;;;;;;;;1965517;67;20126;-69
2021/06/16 02:20:21;;;;;;;11.30;2.90;;;;;;;;;;1912524;75;20072;-69
2021/06/16 02:22:47;;;;;;;9.80;2.88;;;;;;;;;;1912657;75;20084;-69
2021/06/16 02:25:14;;;;;;;7.60;3.17;;;;;;;;;;1912684;75;20259;-68
2021/06/16 02:27:39;;;;;;;8.60;2.85;;;;;;;;;;1938767;67;20085;-69
2021/06/16 02:30:06;;;;;;;12.02;3.58;;;;;;;;;;1909700;75;20084;-68
2021/06/16 02:32:32;;;;;;;9.52;3.28;;;;;;;;;;1909899;75;20143;-69
2021/06/16 02:34:58;;;;;;;7.22;2.83;;;;;;;;;;1909555;75;20493;-68
2021/06/16 02:37:25;;;;;;;9.80;3.13;;;;;;;;;;1943356;67;20140;-69
2021/06/16 02:40:01;;;;;;;9.50;3.10;;;;;;;;;;1912824;75;20087;-68
2021/06/16 02:42:27;;;;;;;14.20;3.40;;;;;;;;;;1912825;75;20144;-68
2021/06/16 02:44:54;;;;;;;12.82;3.33;;;;;;;;;;1912438;75;20153;-68
2021/06/16 02:47:20;;;;;;;10.15;3.50;;;;;;;;;;1939951;67;20103;-69
2021/06/16 02:49:54;;;;;;;9.13;3.13;;;;;;;;;;1909478;75;20500;-68
2021/06/16 02:52:21;;;;;;;7.60;2.97;;;;;;;;;;1910034;75;20198;-69
2021/06/16 02:54:51;;;;;;;12.07;3.13;;;;;;;;;;1909861;75;20081;-69
2021/06/16 02:57:22;;;;;;;8.95;3.60;;;;;;;;;;1914722;67;20098;-69
2021/06/16 02:59:49;;;;;;;9.02;2.78;;;;;;;;;;1912440;75;20380;-68
2021/06/16 03:02:16;;;;;;;8.45;3.20;;;;;;;;;;1912522;75;20141;-69
2021/06/16 03:04:44;;;;;;;10.80;4.25;;;;;;;;;;1911101;75;20450;-70
2021/06/16 03:07:10;;;;;;;10.43;3.83;;;;;;;;;;1909878;75;20393;-70
2021/06/16 03:09:38;;;;;;;12.90;3.65;;;;;;;;;;1909897;75;20190;-68
2021/06/16 03:12:05;;;;;;;14.50;3.42;;;;;;;;;;1912125;67;20091;-69
2021/06/16 03:14:31;;;;;;;9.43;3.08;;;;;;;;;;1912725;75;20486;-68
2021/06/16 03:16:58;;;;;;;12.98;3.80;;;;;;;;;;1912761;75;20109;-69
2021/06/16 03:19:24;;;;;;;9.57;3.50;;;;;;;;;;1912255;75;20103;-68
2021/06/16 03:21:50;;;;;;;12.13;3.83;;;;;;;;;;1912440;75;20079;-68
2021/06/16 03:24:21;;;;;;;10.82;3.28;;;;;;;;;;1910001;75;20110;-68
2021/06/16 03:26:47;;;;;;;10.85;3.50;;;;;;;;;;1909820;75;20084;-68
2021/06/16 03:29:13;;;;;;;9.68;3.58;;;;;;;;;;2040334;67;20106;-68
2021/06/16 03:31:42;;;;;;;12.52;3.55;;;;;;;;;;1910553;75;20092;-69
2021/06/16 03:34:09;;;;;;;9.57;3.53;;;;;;;;;;1966612;67;20084;-68
2021/06/16 03:36:38;;;;;;;14.85;3.78;;;;;;;;;;1910328;75;20095;-68
2021/06/16 03:39:07;;;;;;;13.07;3.67;;;;;;;;;;1909992;75;20084;-69
2021/06/16 03:41:35;;;;;;;15.23;4.47;;;;;;;;;;1910394;75;20129;-69
2021/06/16 03:44:01;;;;;;;13.80;3.58;;;;;;;;;;2062360;67;20137;-69
2021/06/16 03:46:29;;;;;;;9.00;3.22;;;;;;;;;;1913543;75;20079;-69
2021/06/16 03:48:55;;;;;;;9.73;3.45;;;;;;;;;;1913477;75;20079;-68
2021/06/16 03:51:21;;;;;;;11.43;3.47;;;;;;;;;;1913081;75;20165;-68
2021/06/16 03:53:49;;;;;;;7.60;3.88;;;;;;;;;;1913433;67;20096;-69
2021/06/16 03:56:15;;;;;;;10.85;3.60;;;;;;;;;;1910365;75;20141;-68
2021/06/16 03:58:41;;;;;;;12.60;3.80;;;;;;;;;;1910468;75;20084;-69
2021/06/16 04:01:11;;;;;;;10.35;4.45;;;;;;;;;;1959017;67;20083;-69
2021/06/16 04:03:37;;;;;;;13.20;3.35;;;;;;;;;;1912428;75;20444;-69
2021/06/16 04:06:02;;;;;;;9.30;3.50;;;;;;;;;;1910465;75;20083;-69
2021/06/16 04:08:28;;;;;;;12.95;3.67;;;;;;;;;;1910609;75;20084;-68
2021/06/16 04:10:55;;;;;;;7.78;3.60;;;;;;;;;;1910992;75;20091;-69
2021/06/16 04:13:20;;;;;;;12.75;4.13;;;;;;;;;;1913495;75;20094;-68
2021/06/16 04:15:47;;;;;;;15.57;4.10;;;;;;;;;;1913177;75;20084;-68
2021/06/16 04:18:12;;;;;;;13.48;4.10;;;;;;;;;;1912781;75;20136;-69
2021/06/16 04:20:38;;;;;;;10.13;3.65;;;;;;;;;;1937857;67;20076;-69
2021/06/16 04:23:03;;;;;;;8.88;3.58;;;;;;;;;;1913380;75;20103;-69
2021/06/16 04:25:28;;;;;;;10.18;3.97;;;;;;;;;;1912741;75;20080;-69
2021/06/16 04:27:55;;;;;;;12.02;3.83;;;;;;;;;;1920911;67;20080;-69
2021/06/16 04:30:22;;;;;;;14.52;4.18;;;;;;;;;;1912520;67;20143;-70
2021/06/16 04:32:48;;;;;;;13.13;4.70;;;;;;;;;;1912749;75;20079;-69
2021/06/16 04:35:14;;;;;;;16.90;4.65;;;;;;;;;;1913088;75;20137;-68
2021/06/16 04:37:40;;;;;;;14.48;4.18;;;;;;;;;;1912755;75;20080;-69
2021/06/16 04:40:08;;;;;;;18.58;4.35;;;;;;;;;;1911266;75;20077;-68
2021/06/16 04:42:33;;;;;;;9.30;3.40;;;;;;;;;;1909868;75;20150;-67
2021/06/16 04:44:59;;;;;;;15.68;4.03;;;;;;;;;;1910164;75;20080;-68
2021/06/16 04:47:24;;;;;;;9.35;3.63;;;;;;;;;;1910220;75;20523;-68
2021/06/16 04:49:49;;;;;;;14.20;4.30;;;;;;;;;;1911596;67;20396;-69
2021/06/16 04:52:15;;;;;;;11.30;3.72;;;;;;;;;;1912579;75;20080;-68
2021/06/16 04:54:40;;;;;;;8.52;2.80;;;;;;;;;;1912574;75;20087;-68
2021/06/16 04:57:06;;;;;;;8.10;3.95;;;;;;;;;;1912891;75;20087;-68
2021/06/16 04:59:32;;;;;;;11.00;3.25;;;;;;;;;;1913568;67;20080;-69
2021/06/16 05:01:59;;;;;;;16.33;3.45;;;;;;;;;;1913028;67;20490;-70
2021/06/16 05:04:24;;;;;;;11.38;3.92;;;;;;;;;;1912910;75;20091;-68
2021/06/16 05:06:49;;;;;;;9.77;3.60;;;;;;;;;;1912871;67;20084;-69
2021/06/16 05:09:14;;;;;;;6.97;3.35;;;;;;;;;;1910310;75;20390;-67
2021/06/16 05:11:40;;;;;;;16.13;3.30;;;;;;;;;;1910256;75;20076;-67
2021/06/16 05:14:05;;;;;;;10.60;3.15;;;;;;;;;;1909833;75;20085;-66
2021/06/16 05:16:31;;;;;;;8.38;3.45;;;;;;;;;;1981850;67;20076;-67
2021/06/16 05:18:58;;;;;;;19.13;4.35;;;;;;;;;;1912581;75;20155;-67
2021/06/16 05:21:23;;;;;;;13.93;3.65;;;;;;;;;;1912905;75;20585;-67
2021/06/16 05:23:49;;;;;;;10.25;3.67;;;;;;;;;;1912827;75;20080;-67
2021/06/16 05:26:15;;;;;;;7.25;3.05;;;;;;;;;;1959831;67;20080;-68
2021/06/16 05:28:40;;;;;;;14.93;3.67;;;;;;;;;;1910024;75;20098;-67
2021/06/16 05:31:06;;;;;;;8.18;3.10;;;;;;;;;;1909965;75;20440;-68
2021/06/16 05:33:31;;;;;;;10.05;2.83;;;;;;;;;;1992853;67;20074;-69
2021/06/16 05:35:57;;;;;;;11.93;3.60;;;;;;;;;;1912642;75;20091;-69
2021/06/16 05:38:23;;;;;;;11.90;3.13;;;;;;;;;;1912536;75;20500;-68
2021/06/16 05:40:48;;;;;;;17.30;3.45;;;;;;;;;;1913093;75;20095;-68
2021/06/16 05:43:13;;;;;;;11.07;3.05;;;;;;;;;;1911553;75;20089;-70
2021/06/16 05:45:39;;;;;;;13.68;3.00;;;;;;;;;;1909507;75;20501;-68
2021/06/16 05:48:04;;;;;;;12.45;3.15;;;;;;;;;;1910015;75;20213;-68
2021/06/16 05:50:30;;;;;;;8.50;2.97;;;;;;;;;;1909775;75;20084;-69
2021/06/16 05:52:55;;;;;;;9.93;2.80;;;;;;;;;;1910353;75;20087;-67
2021/06/16 05:55:20;;;;;;;12.25;3.20;;;;;;;;;;1912487;75;20392;-68
2021/06/16 05:57:46;;;;;;;15.52;3.47;;;;;;;;;;1912464;75;20361;-68
2021/06/16 06:00:12;;;;;;;8.35;3.50;;;;;;;;;;1912733;75;20083;-68
2021/06/16 06:02:37;;;;;;;12.40;3.63;;;;;;;;;;1914061;67;20079;-69
2021/06/16 06:05:04;;;;;;;15.38;3.40;;;;;;;;;;1910285;75;20097;-68
2021/06/16 06:07:30;;;;;;;7.32;3.28;;;;;;;;;;1910519;75;20092;-70
2021/06/16 06:09:55;;;;;;;9.30;2.95;;;;;;;;;;1910518;75;20384;-69
2021/06/16 06:12:20;;;;;;;17.25;3.05;;;;;;;;;;1910035;75;20084;-68
2021/06/16 06:14:46;;;;;;;7.30;3.22;;;;;;;;;;1909969;75;20497;-69
2021/06/16 06:17:11;;;;;;;13.45;3.47;;;;;;;;;;1910236;75;20397;-67
2021/06/16 06:19:36;;;;;;;9.00;3.65;;;;;;;;;;1910111;75;20397;-68
2021/06/16 06:22:02;;;;;;;6.50;2.72;;;;;;;;;;1912595;67;20504;-69
2021/06/16 06:24:28;;;;;;;12.00;2.80;;;;;;;;;;1934199;67;20384;-68
2021/06/16 06:26:53;;;;;;;13.18;3.13;;;;;;;;;;1910226;75;20092;-68
2021/06/16 06:29:19;;;;;;;14.05;3.40;;;;;;;;;;1910336;75;20131;-68
2021/06/16 06:31:44;;;;;;;8.13;2.92;;;;;;;;;;1910070;75;20084;-68
2021/06/16 06:34:09;;;;;;;6.55;2.40;;;;;;;;;;1910295;67;20087;-68
2021/06/16 06:36:35;;;;;;;7.32;2.90;;;;;;;;;;1979111;67;20095;-68
2021/06/16 06:39:00;;;;;;;10.10;2.65;;;;;;;;;;1912609;75;20095;-68
2021/06/16 06:41:26;;;;;;;5.60;1.92;;;;;;;;;;1912995;75;20091;-68
2021/06/16 06:43:51;;;;;;;7.35;2.38;;;;;;;;;;1913207;75;20083;-68
2021/06/16 06:46:16;;;;;;;8.27;2.35;;;;;;;;;;1910907;67;20091;-69
2021/06/16 06:48:42;;;;;;;7.90;2.30;;;;;;;;;;1909864;75;20145;-70
2021/06/16 06:51:08;;;;;;;5.47;2.03;;;;;;;;;;1910075;75;20120;-69
2021/06/16 06:53:33;;;;;;;5.00;1.80;;;;;;;;;;1909792;75;20092;-69
2021/06/16 06:55:59;;;;;;;12.25;2.40;;;;;;;;;;1916122;67;20145;-68
2021/06/16 06:58:25;;;;;;;7.15;2.20;;;;;;;;;;1913299;75;20119;-68
2021/06/16 07:00:51;;;;;;;8.88;2.20;;;;;;;;;;1913449;75;20087;-69
2021/06/16 07:03:16;;;;;;;7.85;2.35;;;;;;;;;;1912727;75;20107;-69
2021/06/16 07:05:42;;;;;;;9.75;2.55;;;;;;;;;;1940420;67;20095;-69
2021/06/16 07:08:07;;;;;;;6.30;2.35;;;;;;;;;;1910240;75;20084;-69
2021/06/16 07:10:33;;;;;;;8.00;2.20;;;;;;;;;;1909995;75;20428;-70
2021/06/16 07:12:58;;;;;;;9.02;2.33;;;;;;;;;;1912151;67;20127;-71
2021/06/16 07:15:24;;;;;;;6.68;2.20;;;;;;;;;;1912887;75;20091;-69
2021/06/16 07:17:50;;;;;;;7.75;2.40;;;;;;;;;;1913552;75;20141;-69
2021/06/16 07:20:19;;;;;;;9.50;2.45;;;;;;;;;;1913477;75;20498;-68
2021/06/16 07:22:47;;;;;;;15.93;2.60;;;;;;;;;;1916566;67;20095;-68
2021/06/16 07:25:14;;;;;;;10.18;2.40;;;;;;;;;;1910326;75;20080;-68
2021/06/16 07:27:42;;;;;;;9.13;2.10;;;;;;;;;;1910401;75;20080;-67
2021/06/16 07:30:08;;;;;;;5.32;1.63;;;;;;;;;;1910500;75;20088;-68
2021/06/16 07:32:34;;;;;;;7.05;1.95;;;;;;;;;;1911629;75;20108;-67
2021/06/16 07:34:59;;;;;;;12.20;1.98;;;;;;;;;;1913380;75;20435;-67
2021/06/16 07:37:25;;;;;;;8.13;1.90;;;;;;;;;;1913485;75;20084;-67
2021/06/16 07:39:51;;;;;;;7.00;2.35;;;;;;;;;;1912781;75;20083;-68
2021/06/16 07:42:16;;;;;;;4.82;2.05;;;;;;;;;;2047489;67;20088;-67
2021/06/16 07:44:41;;;;;;;10.50;2.33;;;;;;;;;;1912609;75;20495;-67
2021/06/16 07:47:07;;;;;;;14.20;2.35;;;;;;;;;;1912827;75;20084;-67
2021/06/16 07:49:32;;;;;;;12.70;2.03;;;;;;;;;;1912589;75;20429;-68
2021/06/16 07:51:57;;;;;;;8.95;2.30;;;;;;;;;;1910557;75;20138;-69
2021/06/16 07:54:23;;;;;;;5.85;2.00;;;;;;;;;;1916724;67;20501;-68
2021/06/16 07:56:48;;;;;;;8.85;2.40;;;;;;;;;;1912760;75;20079;-67
2021/06/16 07:59:14;;;;;;;10.35;2.17;;;;;;;;;;1912580;75;20091;-68
2021/06/16 08:01:42;;;;;;;9.65;2.05;;;;;;;;;;1913153;75;20091;-68
2021/06/16 08:04:08;;;;;;;10.77;2.28;;;;;;;;;;1913000;75;20503;-67
2021/06/16 08:06:33;;;;;;;20.58;2.28;;;;;;;;;;1912788;67;20095;-68
2021/06/16 08:08:58;;;;;;;5.85;1.77;;;;;;;;;;1909812;75;20084;-67
2021/06/16 08:11:24;;;;;;;8.20;2.00;;;;;;;;;;1917334;67;20091;-67
2021/06/16 08:13:50;;;;;;;5.75;1.92;;;;;;;;;;1912925;75;20498;-68
2021/06/16 08:16:18;;;;;;;7.90;2.40;;;;;;;;;;1911532;67;20082;-68
2021/06/16 08:18:44;;;;;;;8.60;2.47;;;;;;;;;;1910175;75;20106;-68
2021/06/16 08:21:09;;;;;;;4.63;1.60;;;;;;;;;;1909951;75;20086;-68
2021/06/16 08:23:34;;;;;;;12.13;2.63;;;;;;;;;;1939563;67;20079;-68
2021/06/16 08:25:59;;;;;;;14.60;2.58;;;;;;;;;;1909978;75;20080;-68
2021/06/16 08:28:25;;;;;;;8.68;2.28;;;;;;;;;;1909705;75;20095;-68
2021/06/16 08:30:50;;;;;;;7.82;2.80;;;;;;;;;;1911686;67;20570;-67
2021/06/16 08:33:16;;;;;;;9.68;2.13;;;;;;;;;;1909574;75;20095;-68
2021/06/16 08:35:41;;;;;;;19.25;3.03;;;;;;;;;;1912814;75;20395;-68
2021/06/16 08:38:06;;;;;;;7.45;2.45;;;;;;;;;;1912659;75;20094;-68
2021/06/16 08:40:32;;;;;;;5.65;1.90;;;;;;;;;;1913198;75;20087;-67
2021/06/16 08:42:57;;;;;;;7.45;1.80;;;;;;;;;;1912690;75;20141;-69
2021/06/16 08:45:23;;;;;;;9.23;2.50;;;;;;;;;;2037757;67;20084;-68
2021/06/16 08:47:49;;;;;;;7.38;2.63;;;;;;;;;;1910173;75;20389;-68
2021/06/16 08:50:16;;;;;;;5.22;1.75;;;;;;;;;;1909776;75;20132;-68
2021/06/16 08:52:43;;;;;;;7.15;2.63;;;;;;;;;;1910151;75;20087;-68
2021/06/16 08:55:11;;;;;;;7.25;2.40;;;;;;;;;;1911786;67;20083;-67
2021/06/16 08:57:37;;;;;;;8.35;2.28;;;;;;;;;;1912935;75;20518;-67
2021/06/16 09:00:07;;;;;;;9.77;2.35;;;;;;;;;;1912547;75;20080;-67
2021/06/16 09:02:33;;;;;;;3.35;2.03;;;;;;;;;;1968538;67;20084;-67
2021/06/16 09:04:58;;;;;;;6.70;1.98;;;;;;;;;;1909606;75;20191;-68
2021/06/16 09:07:26;;;;;;;4.18;1.88;;;;;;;;;;1909372;75;20465;-67
2021/06/16 09:10:13;;;;;;;7.68;2.22;;;;;;;;;;1909943;75;20127;-67
2021/06/16 09:12:50;;;;;;;7.60;1.80;;;;;;;;;;1955493;67;20076;-67
2021/06/16 09:15:17;;;;;;;7.82;2.45;;;;;;;;;;1912528;75;20384;-67
2021/06/16 09:18:06;;;;;;;6.55;1.98;;;;;;;;;;1912730;75;20102;-69
2021/06/16 09:20:37;;;;;;;8.63;2.40;;;;;;;;;;1911658;67;20489;-68
2021/06/16 09:23:14;;;;;;;6.82;1.85;;;;;;;;;;1909563;75;20136;-67
2021/06/16 09:25:41;;;;;;;8.02;1.90;;;;;;;;;;1909516;75;20080;-68
2021/06/16 09:28:06;;;;;;;11.30;2.03;;;;;;;;;;1909239;75;20084;-69
2021/06/16 09:30:50;;;;;;;7.03;1.80;;;;;;;;;;1941737;67;20075;-68
2021/06/16 09:33:17;;;;;;;17.10;4.93;;;;;;;;;;1912726;75;20091;-68
2021/06/16 09:35:46;;;;;;;6.68;2.53;;;;;;;;;;1937376;67;20112;-68
2021/06/16 09:38:26;;;;;;;6.38;2.10;;;;;;;;;;1910475;75;20084;-68
2021/06/16 09:40:53;;;;;;;4.28;2.25;;;;;;;;;;1910503;75;20157;-67
2021/06/16 09:43:21;;;;;;;6.63;2.42;;;;;;;;;;1910651;75;20512;-68
2021/06/16 09:45:54;;;;;;;6.28;2.03;;;;;;;;;;1916274;67;20137;-67
2021/06/16 09:48:45;;;;;;;7.28;2.25;;;;;;;;;;1913109;75;20133;-69
2021/06/16 09:51:24;;;;;;;5.03;2.25;;;;;;;;;;1911530;67;20142;-68
2021/06/16 09:54:13;;;;;;;15.32;2.40;;;;;;;;;;1913180;67;20092;-68
2021/06/16 09:56:44;;;;;;;8.13;2.58;;;;;;;;;;1913213;75;20427;-68
2021/06/16 09:59:11;;;;;;;7.78;1.83;;;;;;;;;;1913205;75;20090;-68
2021/06/16 10:01:44;;;;;;;5.38;1.90;;;;;;;;;;1988997;67;20076;-67
2021/06/16 10:04:10;;;;;;;7.00;2.38;;;;;;;;;;1912829;75;20091;-68
2021/06/16 10:06:35;;;;;;;9.18;2.30;;;;;;;;;;1912942;75;20107;-68
2021/06/16 10:09:07;;;;;;;9.75;2.70;;;;;;;;;;1913131;75;20083;-69
2021/06/16 10:11:34;;;;;;;10.10;2.60;;;;;;;;;;1911430;67;20088;-68
2021/06/16 10:14:00;;;;;;;5.18;1.85;;;;;;;;;;1911573;67;20087;-68
2021/06/16 10:16:27;;;;;;;4.35;2.50;;;;;;;;;;1912416;75;20555;-68
2021/06/16 10:18:53;;;;;;;6.07;2.70;;;;;;;;;;1912239;75;20484;-68
2021/06/16 10:21:20;;;;;;;6.78;2.92;;;;;;;;;;1912647;75;20079;-67
2021/06/16 10:23:45;;;;;;;5.63;2.50;;;;;;;;;;2060970;67;20087;-69
2021/06/16 10:26:15;;;;;;;5.88;2.30;;;;;;;;;;1909383;75;20076;-69
2021/06/16 10:28:47;;;;;;;5.75;2.38;;;;;;;;;;1915008;67;20132;-69
2021/06/16 10:31:15;;;;;;;6.50;2.33;;;;;;;;;;1909560;75;20084;-69
2021/06/16 10:33:41;;;;;;;4.93;2.75;;;;;;;;;;1945262;67;20107;-69
2021/06/16 10:36:18;;;;;;;5.85;2.72;;;;;;;;;;1912499;75;20429;-69
2021/06/16 10:39:06;;;;;;;8.40;2.85;;;;;;;;;;1912554;75;20080;-68
2021/06/16 10:41:38;;;;;;;4.05;2.47;;;;;;;;;;1912450;75;20080;-68
2021/06/16 10:44:12;;;;;;;4.30;2.28;;;;;;;;;;1912934;67;20084;-69
2021/06/16 10:46:54;;;;;;;5.15;2.50;;;;;;;;;;1909381;75;20084;-69
2021/06/16 10:49:49;;;;;;;3.67;2.30;;;;;;;;;;1909483;75;20129;-69
2021/06/16 10:52:21;;;;;;;5.30;2.47;;;;;;;;;;1909692;75;20099;-68
2021/06/16 10:54:59;;;;;;;6.53;2.63;;;;;;;;;;1912057;67;20075;-68
2021/06/16 10:57:25;;;;;;;9.50;2.67;;;;;;;;;;1912986;75;20493;-68
2021/06/16 10:59:51;;;;;;;11.23;2.63;;;;;;;;;;1912901;67;20153;-69
2021/06/16 11:02:38;;;;;;;9.10;2.97;;;;;;;;;;1912126;75;20083;-68
2021/06/16 11:05:23;;;;;;;11.95;3.20;;;;;;;;;;1910746;75;20079;-68
2021/06/16 11:07:49;;;;;;;3.70;2.03;;;;;;;;;;1912176;75;20094;-68
2021/06/16 11:10:15;;;;;;;11.50;2.83;;;;;;;;;;1995056;67;20494;-69
2021/06/16 11:12:45;;;;;;;5.03;2.70;;;;;;;;;;1909290;75;20092;-68
2021/06/16 11:15:29;;;;;;;7.40;2.80;;;;;;;;;;1909156;75;20146;-69
2021/06/16 11:17:56;;;;;;;6.80;2.80;;;;;;;;;;1909261;75;20115;-68
2021/06/16 11:20:24;;;;;;;5.47;3.03;;;;;;;;;;1909906;67;20084;-68
2021/06/16 11:22:49;;;;;;;9.07;3.08;;;;;;;;;;1909173;75;20084;-68
2021/06/16 11:25:17;;;;;;;9.05;2.90;;;;;;;;;;1909418;67;20111;-68
2021/06/16 11:28:08;;;;;;;8.73;3.10;;;;;;;;;;1909257;75;20095;-68
2021/06/16 11:30:42;;;;;;;9.35;3.50;;;;;;;;;;2011898;67;20419;-69
2021/06/16 11:33:19;;;;;;;6.47;3.50;;;;;;;;;;1912099;75;20083;-68
2021/06/16 11:35:52;;;;;;;13.25;3.97;;;;;;;;;;1912251;75;20087;-68
2021/06/16 11:38:17;;;;;;;6.28;3.60;;;;;;;;;;1911416;67;20157;-69
2021/06/16 11:41:14;;;;;;;9.25;3.33;;;;;;;;;;1909116;75;20466;-68
2021/06/16 11:43:41;;;;;;;8.60;4.78;;;;;;;;;;1907730;75;20110;-67
2021/06/16 11:46:31;;;;;;;7.20;3.75;;;;;;;;;;1927426;67;20511;-68
2021/06/16 11:49:03;;;;;;;6.32;4.45;;;;;;;;;;1912093;75;20383;-68
2021/06/16 11:51:33;;;;;;;4.55;3.08;;;;;;;;;;1911933;75;20110;-68
2021/06/16 11:54:04;;;;;;;11.13;4.53;;;;;;;;;;1912022;75;20094;-68
2021/06/16 11:56:38;;;;;;;5.50;3.90;;;;;;;;;;1951470;67;20200;-69
2021/06/16 11:59:03;;;;;;;8.77;4.47;;;;;;;;;;1995334;67;20512;-69
2021/06/16 12:01:29;;;;;;;6.07;4.18;;;;;;;;;;1909012;75;20124;-69
2021/06/16 12:03:59;;;;;;;10.80;4.90;;;;;;;;;;1909594;75;20114;-69
2021/06/16 12:06:24;;;;;;;7.85;3.97;;;;;;;;;;1976292;67;20091;-69
2021/06/16 12:08:59;;;;;;;8.00;4.10;;;;;;;;;;1912474;75;20141;-68
2021/06/16 12:11:32;;;;;;;11.27;4.57;;;;;;;;;;1944619;67;20141;-69
2021/06/16 12:14:09;;;;;;;13.55;4.80;;;;;;;;;;1910482;67;20179;-69
2021/06/16 12:16:43;;;;;;;10.75;4.60;;;;;;;;;;1909394;75;20110;-69
2021/06/16 12:19:15;;;;;;;9.10;4.90;;;;;;;;;;1909357;75;20081;-69
2021/06/16 12:21:49;;;;;;;;;;;;;;;;;;1925776;67;20133;-69
2021/06/16 12:24:23;;;;;;;18.70;5.10;;;;;;;;;;1912061;75;19963;-69
2021/06/16 12:27:16;;;;;;;7.22;4.55;;;;;;;;;;1911775;75;20137;-68
2021/06/16 12:29:53;;;;;;;9.73;4.65;;;;;;;;;;1926112;67;20106;-69
2021/06/16 12:32:45;;;;;;;6.25;4.63;;;;;;;;;;1912503;67;20137;-68
2021/06/16 12:35:25;;;;;;;7.57;5.18;;;;;;;;;;1909342;75;20084;-68
2021/06/16 12:37:53;;;;;;;6.53;5.13;;;;;;;;;;1909516;75;20531;-69
2021/06/16 12:40:31;;;;;;;6.47;4.28;;;;;;;;;;1910342;75;20107;-68
2021/06/16 12:42:56;;;;;;;10.65;4.80;;;;;;;;;;1915065;67;20088;-69
2021/06/16 12:45:36;;;;;;;7.65;4.95;;;;;;;;;;1912325;75;20137;-68
2021/06/16 12:48:27;;;;;;;13.07;5.60;;;;;;;;;;1912314;75;20128;-68
2021/06/16 12:50:58;;;;;;;12.25;4.47;;;;;;;;;;1912352;75;20093;-68
2021/06/16 12:53:25;;;;;;;11.02;4.63;;;;;;;;;;2060342;67;20076;-68
2021/06/16 12:55:56;;;;;;;9.57;4.53;;;;;;;;;;1911238;75;20083;-68
2021/06/16 12:58:22;;;;;;;7.22;4.50;;;;;;;;;;1912131;67;20087;-70
2021/06/16 13:00:53;;;;;;;11.35;4.80;;;;;;;;;;1911775;75;20485;-70
2021/06/16 13:03:21;;;;;;;9.48;4.60;;;;;;;;;;1912233;75;20533;-69
2021/06/16 13:06:06;;;;;;;7.25;4.55;;;;;;;;;;1911874;75;20090;-70
2021/06/16 13:08:42;;;;;;;9.10;5.00;;;;;;;;;;1911968;67;20103;-70
2021/06/16 13:11:27;;;;;;;12.80;4.50;;;;;;;;;;1912359;75;20084;-69
2021/06/16 13:14:12;;;;;;;10.60;4.93;;;;;;;;;;1912790;75;20424;-69
2021/06/16 13:16:37;;;;;;;7.25;4.75;;;;;;;;;;1912596;75;20076;-70
2021/06/16 13:19:09;;;;;;;10.73;4.75;;;;;;;;;;1909379;75;20095;-69
2021/06/16 13:21:36;;;;;;;11.05;4.53;;;;;;;;;;1909439;75;20119;-69
2021/06/16 13:24:09;;;;;;;5.32;4.13;;;;;;;;;;1909750;75;20088;-70
2021/06/16 13:26:35;;;;;;;13.15;4.47;;;;;;;;;;1909558;75;20560;-70
2021/06/16 13:29:09;;;;;;;12.70;4.15;;;;;;;;;;1916190;67;20076;-69
2021/06/16 13:31:35;;;;;;;7.80;4.53;;;;;;;;;;1909414;75;20096;-69
2021/06/16 13:34:12;;;;;;;8.02;4.55;;;;;;;;;;1909696;75;20084;-69
2021/06/16 13:36:39;;;;;;;6.30;4.50;;;;;;;;;;2002921;67;20448;-71
2021/06/16 13:39:05;;;;;;;7.65;4.47;;;;;;;;;;1984792;67;20084;-69
2021/06/16 13:41:31;;;;;;;12.20;4.50;;;;;;;;;;1909641;75;20091;-71
2021/06/16 13:43:56;;;;;;;8.98;4.38;;;;;;;;;;1968654;67;20121;-70
2021/06/16 13:46:22;;;;;;;9.20;4.90;;;;;;;;;;1923016;67;20140;-70
2021/06/16 13:48:47;;;;;;;13.27;4.68;;;;;;;;;;1909701;75;20084;-70
2021/06/16 13:51:13;;;;;;;8.63;4.85;;;;;;;;;;1909529;75;20088;-70
2021/06/16 13:53:38;;;;;;;8.10;4.35;;;;;;;;;;1911671;67;20091;-69
2021/06/16 13:56:04;;;;;;;8.38;5.13;;;;;;;;;;1912234;75;20508;-69
2021/06/16 13:58:30;;;;;;;8.10;4.30;;;;;;;;;;1912757;75;20080;-70
2021/06/16 14:00:55;;;;;;;5.35;4.40;;;;;;;;;;1913086;75;20091;-70
2021/06/16 14:03:21;;;;;;;6.97;4.13;;;;;;;;;;1916358;67;20079;-69
2021/06/16 14:05:47;;;;;;;10.07;4.40;;;;;;;;;;1912981;75;20562;-69
2021/06/16 14:08:12;;;;;;;9.77;4.03;;;;;;;;;;1912944;75;20086;-71
2021/06/16 14:10:38;;;;;;;11.52;5.25;;;;;;;;;;1913088;75;20091;-69
2021/06/16 14:13:04;;;;;;;5.60;4.30;;;;;;;;;;1912783;75;20373;-69
2021/06/16 14:15:31;;;;;;;9.55;4.93;;;;;;;;;;2032201;67;20134;-69
2021/06/16 14:17:56;;;;;;;6.15;4.50;;;;;;;;;;1910698;67;20099;-70
2021/06/16 14:20:22;;;;;;;7.55;4.30;;;;;;;;;;1909464;75;20080;-69
2021/06/16 14:22:48;;;;;;;7.35;4.93;;;;;;;;;;1909769;75;20435;-70
2021/06/16 14:25:14;;;;;;;7.55;4.88;;;;;;;;;;2036009;67;20500;-70
2021/06/16 14:27:40;;;;;;;8.80;4.20;;;;;;;;;;1918215;67;20141;-68
2021/06/16 14:30:09;;;;;;;8.98;4.25;;;;;;;;;;1912890;75;20510;-69
2021/06/16 14:32:36;;;;;;;7.53;4.95;;;;;;;;;;1912391;75;20103;-69
2021/06/16 14:35:01;;;;;;;7.32;4.75;;;;;;;;;;1910259;75;20115;-68
2021/06/16 14:37:27;;;;;;;10.93;4.82;;;;;;;;;;1909961;75;20084;-70
2021/06/16 14:39:52;;;;;;;9.35;4.72;;;;;;;;;;1910182;75;20080;-69
2021/06/16 14:42:17;;;;;;;6.97;4.40;;;;;;;;;;1945305;67;20123;-69
2021/06/16 14:44:43;;;;;;;6.78;4.15;;;;;;;;;;1912370;75;20087;-69
2021/06/16 14:47:09;;;;;;;11.02;4.50;;;;;;;;;;1912805;75;20075;-69